createdAt,value
2022-11-17T00:00:06.014Z,2.24
2022-11-17T00:02:35.253Z,2.20
2022-11-17T00:05:03.208Z,2.04
2022-11-17T00:07:31.299Z,2.06
2022-11-17T00:09:59.138Z,2.00
2022-11-17T00:12:44.867Z,1.97
2022-11-17T00:15:12.756Z,1.92
2022-11-17T00:17:41.956Z,1.82
2022-11-17T00:20:25.786Z,1.82
2022-11-17T00:22:53.681Z,1.78
2022-11-17T00:25:21.483Z,1.77
2022-11-17T00:27:49.452Z,1.75
2022-11-17T00:30:31.220Z,1.73
2022-11-17T00:33:20.805Z,1.73
2022-11-17T00:35:53.098Z,1.75
2022-11-17T00:38:21.623Z,1.75
2022-11-17T00:40:49.439Z,1.82
2022-11-17T00:43:17.333Z,1.83
2022-11-17T00:45:45.316Z,1.85
2022-11-17T00:48:14.707Z,1.73
2022-11-17T00:50:42.711Z,1.88
2022-11-17T00:53:10.700Z,1.90
2022-11-17T00:55:38.636Z,1.91
2022-11-17T00:58:06.485Z,1.93
2022-11-17T01:00:34.587Z,1.88
2022-11-17T01:03:02.406Z,1.88
2022-11-17T01:05:33.197Z,1.98
2022-11-17T01:08:01.324Z,2.02
2022-11-17T01:10:29.124Z,2.04
2022-11-17T01:12:56.911Z,2.02
2022-11-17T01:15:24.941Z,2.04
2022-11-17T01:17:52.773Z,2.04
2022-11-17T01:20:20.907Z,2.04
2022-11-17T01:22:50.249Z,2.05
2022-11-17T01:25:18.129Z,2.04
2022-11-17T01:27:45.936Z,2.03
2022-11-17T01:30:14.768Z,2.01
2022-11-17T01:32:42.545Z,2.00
2022-11-17T01:35:10.820Z,1.98
2022-11-17T01:37:39.039Z,2.00
2022-11-17T01:40:11.034Z,2.02
2022-11-17T01:42:38.921Z,2.02
2022-11-17T01:45:19.148Z,2.02
2022-11-17T01:47:51.097Z,2.03
2022-11-17T01:50:29.604Z,1.33
2022-11-17T01:53:00.143Z,1.98
2022-11-17T01:55:34.852Z,1.58
2022-11-17T01:58:09.284Z,1.93
2022-11-17T02:00:37.361Z,1.89
2022-11-17T02:03:07.347Z,1.87
2022-11-17T02:05:44.585Z,1.85
2022-11-17T02:08:13.351Z,1.83
2022-11-17T02:10:51.263Z,1.84
2022-11-17T02:13:20.432Z,1.73
2022-11-17T02:15:48.585Z,1.84
2022-11-17T02:18:17.507Z,1.84
2022-11-17T02:21:01.440Z,1.81
2022-11-17T02:23:57.320Z,1.85
2022-11-17T02:27:12.560Z,1.84
2022-11-17T02:29:50.342Z,1.74
2022-11-17T02:32:25.647Z,1.67
2022-11-17T02:35:02.915Z,1.60
2022-11-17T02:37:39.380Z,1.69
2022-11-17T02:40:11.808Z,1.70
2022-11-17T02:43:00.389Z,1.65
2022-11-17T02:45:35.832Z,1.62
2022-11-17T02:48:12.299Z,1.61
2022-11-17T02:50:41.327Z,1.31
2022-11-17T02:53:09.892Z,1.54
2022-11-17T02:55:38.933Z,1.52
2022-11-17T02:58:12.244Z,1.48
2022-11-17T03:00:51.147Z,1.52
2022-11-17T03:03:32.840Z,1.52
2022-11-17T03:06:08.779Z,1.54
2022-11-17T03:08:57.216Z,1.38
2022-11-17T03:11:33.520Z,1.42
2022-11-17T03:14:09.790Z,1.61
2022-11-17T03:16:44.347Z,1.62
2022-11-17T03:19:18.562Z,1.55
2022-11-17T03:21:49.544Z,1.59
2022-11-17T03:24:22.167Z,1.54
2022-11-17T03:26:53.804Z,1.47
2022-11-17T03:29:24.202Z,1.40
2022-11-17T03:31:58.432Z,1.33
2022-11-17T03:34:30.427Z,1.08
2022-11-17T03:37:03.768Z,1.14
2022-11-17T03:39:33.907Z,1.13
2022-11-17T03:42:07.806Z,1.01
2022-11-17T03:44:40.248Z,1.04
2022-11-17T03:47:13.808Z,0.96
2022-11-17T03:49:46.126Z,1.01
2022-11-17T03:52:13.947Z,1.05
2022-11-17T03:54:42.396Z,1.10
2022-11-17T03:57:15.985Z,1.02
2022-11-17T03:59:53.930Z,0.92
2022-11-17T04:02:24.859Z,1.22
2022-11-17T04:05:08.178Z,0.46
2022-11-17T04:07:37.515Z,1.32
2022-11-17T04:10:06.451Z,1.36
2022-11-17T04:12:51.961Z,1.41
2022-11-17T04:15:37.407Z,1.42
2022-11-17T04:18:07.395Z,1.38
2022-11-17T04:20:36.996Z,1.43
2022-11-17T04:23:08.520Z,1.44
2022-11-17T04:25:54.115Z,1.44
2022-11-17T04:28:38.237Z,1.30
2022-11-17T04:31:12.486Z,1.44
2022-11-17T04:33:44.211Z,1.38
2022-11-17T04:36:14.636Z,1.32
2022-11-17T04:38:43.729Z,1.20
2022-11-17T04:41:31.202Z,1.28
2022-11-17T04:43:59.495Z,1.23
2022-11-17T04:46:28.073Z,1.24
2022-11-17T04:48:58.553Z,1.23
2022-11-17T04:51:27.440Z,1.22
2022-11-17T04:53:55.723Z,1.23
2022-11-17T04:56:25.036Z,1.29
2022-11-17T04:58:53.891Z,1.23
2022-11-17T05:01:22.446Z,1.39
2022-11-17T05:03:52.280Z,1.42
2022-11-17T05:06:24.458Z,1.42
2022-11-17T05:08:55.726Z,1.38
2022-11-17T05:11:42.613Z,1.35
2022-11-17T05:14:11.546Z,1.30
2022-11-17T05:16:57.138Z,1.27
2022-11-17T05:19:26.937Z,1.18
2022-11-17T05:21:56.985Z,1.22
2022-11-17T05:24:23.811Z,1.21
2022-11-17T05:26:52.008Z,1.12
2022-11-17T05:29:21.848Z,1.11
2022-11-17T05:31:50.263Z,1.05
2022-11-17T05:34:19.106Z,0.99
2022-11-17T05:36:47.504Z,0.92
2022-11-17T05:39:16.760Z,0.92
2022-11-17T05:41:44.680Z,0.91
2022-11-17T05:44:12.613Z,0.92
2022-11-17T05:46:40.429Z,0.94
2022-11-17T05:49:08.420Z,0.93
2022-11-17T05:51:37.896Z,0.93
2022-11-17T05:54:06.047Z,0.92
2022-11-17T05:56:40.282Z,0.91
2022-11-17T05:59:17.209Z,0.93
2022-11-17T06:01:50.100Z,0.96
2022-11-17T06:04:20.648Z,1.02
2022-11-17T06:06:49.739Z,1.05
2022-11-17T06:09:18.107Z,1.10
2022-11-17T06:11:47.277Z,0.27
2022-11-17T06:14:15.303Z,1.18
2022-11-17T06:16:46.881Z,1.20
2022-11-17T06:19:21.141Z,1.09
2022-11-17T06:22:11.115Z,1.18
2022-11-17T06:24:38.876Z,1.13
2022-11-17T06:27:08.203Z,1.09
2022-11-17T06:29:39.467Z,1.04
2022-11-17T06:32:11.019Z,1.01
2022-11-17T06:34:38.928Z,0.95
2022-11-17T06:37:06.723Z,1.02
2022-11-17T06:39:34.818Z,1.05
2022-11-17T06:42:02.631Z,0.92
2022-11-17T06:44:31.786Z,1.17
2022-11-17T06:46:59.979Z,1.12
2022-11-17T06:49:27.823Z,1.20
2022-11-17T06:51:55.768Z,1.32
2022-11-17T06:54:23.930Z,1.32
2022-11-17T06:56:52.562Z,1.24
2022-11-17T06:59:20.410Z,1.30
2022-11-17T07:01:49.783Z,1.04
2022-11-17T07:04:17.658Z,1.29
2022-11-17T07:06:45.528Z,1.30
2022-11-17T07:09:13.726Z,1.14
2022-11-17T07:11:41.599Z,1.32
2022-11-17T07:14:09.725Z,1.33
2022-11-17T07:16:37.843Z,1.35
2022-11-17T07:19:08.468Z,1.38
2022-11-17T07:21:36.728Z,1.41
2022-11-17T07:24:04.941Z,1.47
2022-11-17T07:26:32.814Z,1.52
2022-11-17T07:29:01.282Z,1.56
2022-11-17T07:31:29.285Z,1.58
2022-11-17T07:33:57.138Z,1.60
2022-11-17T07:36:26.402Z,1.57
2022-11-17T07:38:54.526Z,1.69
2022-11-17T07:41:22.412Z,1.77
2022-11-17T07:43:50.287Z,1.79
2022-11-17T07:46:18.503Z,1.81
2022-11-17T07:48:46.345Z,1.80
2022-11-17T07:51:14.274Z,1.80
2022-11-17T07:53:43.737Z,1.63
2022-11-17T07:56:12.467Z,1.70
2022-11-17T07:58:41.018Z,1.87
2022-11-17T08:01:09.739Z,1.95
2022-11-17T08:03:39.321Z,1.98
2022-11-17T08:06:09.409Z,2.03
2022-11-17T08:08:38.202Z,2.09
2022-11-17T08:11:10.148Z,2.18
2022-11-17T08:13:39.026Z,2.31
2022-11-17T08:16:07.748Z,2.32
2022-11-17T08:18:36.724Z,2.43
2022-11-17T08:21:06.154Z,2.46
2022-11-17T08:23:35.637Z,1.69
2022-11-17T08:26:04.606Z,2.38
2022-11-17T08:28:34.821Z,2.32
2022-11-17T08:31:03.917Z,2.25
2022-11-17T08:33:32.028Z,2.26
2022-11-17T08:36:00.358Z,2.26
2022-11-17T08:38:29.296Z,2.26
2022-11-17T08:40:57.797Z,2.29
2022-11-17T08:43:26.016Z,2.33
2022-11-17T08:45:55.440Z,2.40
2022-11-17T08:48:24.081Z,2.46
2022-11-17T08:50:52.188Z,2.48
2022-11-17T08:53:22.368Z,2.64
2022-11-17T08:55:51.940Z,2.66
2022-11-17T08:58:20.138Z,2.82
2022-11-17T09:00:48.317Z,2.86
2022-11-17T09:03:17.698Z,2.83
2022-11-17T09:05:49.017Z,2.89
2022-11-17T09:08:44.406Z,2.88
2022-11-17T09:11:06.992Z,2.94
2022-11-17T09:13:34.942Z,2.61
2022-11-17T09:16:03.793Z,2.89
2022-11-17T09:18:33.289Z,2.83
2022-11-17T09:21:02.176Z,2.86
2022-11-17T09:23:31.680Z,2.83
2022-11-17T09:26:00.177Z,2.89
2022-11-17T09:28:28.476Z,2.89
2022-11-17T09:30:56.329Z,2.89
2022-11-17T09:33:24.361Z,2.94
2022-11-17T09:35:57.996Z,2.99
2022-11-17T09:38:25.945Z,3.04
2022-11-17T09:40:55.273Z,3.09
2022-11-17T09:43:28.416Z,3.17
2022-11-17T09:46:07.231Z,3.17
2022-11-17T09:48:42.475Z,3.17
2022-11-17T09:51:19.549Z,3.17
2022-11-17T09:53:55.438Z,3.19
2022-11-17T09:56:23.472Z,3.20
2022-11-17T09:58:56.381Z,3.25
2022-11-17T10:01:24.892Z,3.20
2022-11-17T10:03:53.631Z,3.36
2022-11-17T10:06:25.079Z,3.43
2022-11-17T10:09:00.410Z,3.49
2022-11-17T10:11:35.314Z,3.49
2022-11-17T10:14:11.798Z,3.56
2022-11-17T10:16:42.007Z,3.63
2022-11-17T10:19:16.820Z,3.73
2022-11-17T10:21:47.141Z,3.78
2022-11-17T10:24:34.533Z,3.82
2022-11-17T10:27:03.854Z,3.83
2022-11-17T10:29:31.909Z,3.91
2022-11-17T10:31:59.883Z,4.02
2022-11-17T10:34:38.779Z,4.09
2022-11-17T10:37:26.681Z,4.23
2022-11-17T10:40:13.930Z,4.20
2022-11-17T10:42:53.849Z,4.26
2022-11-17T10:45:22.042Z,4.16
2022-11-17T10:47:49.947Z,4.05
2022-11-17T10:50:24.379Z,3.92
2022-11-17T10:52:55.741Z,3.82
2022-11-17T10:55:29.168Z,3.39
2022-11-17T10:58:02.273Z,3.65
2022-11-17T11:00:33.054Z,3.70
2022-11-17T11:03:22.453Z,3.80
2022-11-17T11:05:59.240Z,3.95
2022-11-17T11:08:33.426Z,4.00
2022-11-17T11:11:03.985Z,4.21
2022-11-17T11:13:38.451Z,4.26
2022-11-17T11:16:07.336Z,4.43
2022-11-17T11:18:35.262Z,4.52
2022-11-17T11:21:12.663Z,4.59
2022-11-17T11:23:55.773Z,4.78
2022-11-17T11:26:44.176Z,4.91
2022-11-17T11:29:23.165Z,4.92
2022-11-17T11:32:02.317Z,4.66
2022-11-17T11:34:53.243Z,4.95
2022-11-17T11:37:26.530Z,4.93
2022-11-17T11:40:04.284Z,4.89
2022-11-17T11:42:47.676Z,4.83
2022-11-17T11:45:24.242Z,4.73
2022-11-17T11:48:23.313Z,4.72
2022-11-17T11:50:56.213Z,4.63
2022-11-17T11:53:29.922Z,4.53
2022-11-17T11:56:10.601Z,4.46
2022-11-17T11:58:44.315Z,4.43
2022-11-17T12:01:14.349Z,4.40
2022-11-17T12:03:50.168Z,4.23
2022-11-17T12:06:43.001Z,4.20
2022-11-17T12:09:29.164Z,4.10
2022-11-17T12:12:02.788Z,4.04
2022-11-17T12:14:32.602Z,3.98
2022-11-17T12:17:07.450Z,3.89
2022-11-17T12:19:55.387Z,3.63
2022-11-17T12:22:56.040Z,3.84
2022-11-17T12:25:29.471Z,3.86
2022-11-17T12:27:58.944Z,3.89
2022-11-17T12:30:59.037Z,3.90
2022-11-17T12:34:14.783Z,3.89
2022-11-17T12:36:42.936Z,3.76
2022-11-17T12:39:52.120Z,3.81
2022-11-17T12:42:20.196Z,3.77
2022-11-17T12:44:57.049Z,3.73
2022-11-17T12:47:30.072Z,3.70
2022-11-17T12:50:27.429Z,3.67
2022-11-17T12:53:07.753Z,3.61
2022-11-17T12:55:48.846Z,3.60
2022-11-17T12:58:24.178Z,3.63
2022-11-17T13:01:04.024Z,3.58
2022-11-17T13:03:42.472Z,3.54
2022-11-17T13:09:01.784Z,3.49
2022-11-17T13:11:30.194Z,3.50
2022-11-17T13:14:12.446Z,3.49
2022-11-17T13:16:47.313Z,3.48
2022-11-17T13:19:33.018Z,3.48
2022-11-17T13:22:03.739Z,3.44
2022-11-17T13:24:34.575Z,3.39
2022-11-17T13:27:04.010Z,3.36
2022-11-17T13:29:31.933Z,2.75
2022-11-17T13:32:20.361Z,3.38
2022-11-17T13:34:53.918Z,3.35
2022-11-17T13:37:24.574Z,3.33
2022-11-17T13:40:01.807Z,3.26
2022-11-17T13:42:32.853Z,3.24
2022-11-17T13:45:04.000Z,3.12
2022-11-17T13:47:51.560Z,3.14
2022-11-17T13:50:35.240Z,3.08
2022-11-17T13:53:06.284Z,3.02
2022-11-17T13:55:35.355Z,2.99
2022-11-17T13:58:06.363Z,2.86
2022-11-17T14:00:35.101Z,2.96
2022-11-17T14:03:07.064Z,2.86
2022-11-17T14:05:35.348Z,2.90
2022-11-17T14:08:14.226Z,2.91
2022-11-17T14:10:42.713Z,2.86
2022-11-17T14:13:31.057Z,2.82
2022-11-17T14:16:01.249Z,2.82
2022-11-17T14:18:34.343Z,2.81
2022-11-17T14:21:10.807Z,2.81
2022-11-17T14:23:39.225Z,2.79
2022-11-17T14:26:07.878Z,2.65
2022-11-17T14:28:35.713Z,2.17
2022-11-17T14:31:03.708Z,2.73
2022-11-17T14:33:32.930Z,2.33
2022-11-17T14:36:01.023Z,2.72
2022-11-17T14:38:29.448Z,2.72
2022-11-17T14:40:57.420Z,2.72
2022-11-17T14:43:26.304Z,2.65
2022-11-17T14:45:54.372Z,2.63
2022-11-17T14:48:22.400Z,2.64
2022-11-17T14:50:57.350Z,2.62
2022-11-17T14:53:25.622Z,2.58
2022-11-17T14:55:53.917Z,2.54
2022-11-17T14:58:21.901Z,2.51
2022-11-17T15:00:49.757Z,2.51
2022-11-17T15:03:17.786Z,2.49
2022-11-17T15:05:46.944Z,2.47
2022-11-17T15:08:16.117Z,2.43
2022-11-17T15:10:45.348Z,2.41
2022-11-17T15:13:13.362Z,2.38
2022-11-17T15:15:41.436Z,2.35
2022-11-17T15:18:11.837Z,2.33
2022-11-17T15:20:39.876Z,2.32
2022-11-17T15:23:08.310Z,2.30
2022-11-17T15:25:38.833Z,2.27
2022-11-17T15:28:06.994Z,2.28
2022-11-17T15:30:34.835Z,2.25
2022-11-17T15:33:02.922Z,2.21
2022-11-17T15:35:30.920Z,2.18
2022-11-17T15:37:58.762Z,2.13
2022-11-17T15:40:26.696Z,2.08
2022-11-17T15:42:56.048Z,2.04
2022-11-17T15:45:23.911Z,2.01
2022-11-17T15:47:51.924Z,2.00
2022-11-17T15:50:20.547Z,2.00
2022-11-17T15:53:03.643Z,1.98
2022-11-17T15:55:34.480Z,1.96
2022-11-17T15:58:03.662Z,1.94
2022-11-17T16:00:33.818Z,1.93
2022-11-17T16:03:01.974Z,1.89
2022-11-17T16:05:31.430Z,1.94
2022-11-17T16:07:59.295Z,1.92
2022-11-17T16:10:27.608Z,1.89
2022-11-17T16:12:56.434Z,1.87
2022-11-17T16:15:25.972Z,1.66
2022-11-17T16:17:54.319Z,1.81
2022-11-17T16:20:22.242Z,1.78
2022-11-17T16:22:50.118Z,1.77
2022-11-17T16:25:18.296Z,1.74
2022-11-17T16:27:46.161Z,1.77
2022-11-17T16:30:14.900Z,1.76
2022-11-17T16:32:44.258Z,1.72
2022-11-17T16:35:12.112Z,1.67
2022-11-17T16:37:39.951Z,1.67
2022-11-17T16:40:08.624Z,1.66
2022-11-17T16:42:36.861Z,1.46
2022-11-17T16:45:05.043Z,1.58
2022-11-17T16:47:33.738Z,1.46
2022-11-17T16:50:04.021Z,1.49
2022-11-17T16:52:31.883Z,0.96
2022-11-17T16:55:04.532Z,1.50
2022-11-17T16:57:33.013Z,1.52
2022-11-17T17:00:01.188Z,1.52
2022-11-17T17:02:29.079Z,1.51
2022-11-17T17:04:56.974Z,1.53
2022-11-17T17:07:26.494Z,1.52
2022-11-17T17:09:54.378Z,1.52
2022-11-17T17:12:22.221Z,1.49
2022-11-17T17:14:50.178Z,1.48
2022-11-17T17:17:17.988Z,1.43
2022-11-17T17:19:45.856Z,1.49
2022-11-17T17:22:13.895Z,1.44
2022-11-17T17:24:43.189Z,1.38
2022-11-17T17:27:11.035Z,1.31
2022-11-17T17:29:39.066Z,1.29
2022-11-17T17:32:06.961Z,1.23
2022-11-17T17:34:34.827Z,1.30
2022-11-17T17:37:03.008Z,1.23
2022-11-17T17:39:30.828Z,1.35
2022-11-17T17:42:00.032Z,1.36
2022-11-17T17:44:28.205Z,1.38
2022-11-17T17:46:57.864Z,1.23
2022-11-17T17:49:25.957Z,1.37
2022-11-17T17:51:54.092Z,1.36
2022-11-17T17:54:24.083Z,1.36
2022-11-17T17:56:52.784Z,1.38
2022-11-17T17:59:22.281Z,1.39
2022-11-17T18:01:50.172Z,1.39
2022-11-17T18:04:18.026Z,1.27
2022-11-17T18:06:48.389Z,1.37
2022-11-17T18:09:19.379Z,1.30
2022-11-17T18:11:50.257Z,1.27
2022-11-17T18:14:22.436Z,1.23
2022-11-17T18:16:52.771Z,1.30
2022-11-17T18:19:21.141Z,1.28
2022-11-17T18:21:48.974Z,1.28
2022-11-17T18:24:17.084Z,1.29
2022-11-17T18:26:45.017Z,1.28
2022-11-17T18:29:16.186Z,1.27
2022-11-17T18:31:46.915Z,1.26
2022-11-17T18:34:18.838Z,1.24
2022-11-17T18:36:46.949Z,1.25
2022-11-17T18:39:16.222Z,1.22
2022-11-17T18:41:44.343Z,1.12
2022-11-17T18:44:13.813Z,1.20
2022-11-17T18:46:41.798Z,1.18
2022-11-17T18:49:10.149Z,1.17
2022-11-17T18:51:39.509Z,1.10
2022-11-17T18:54:07.971Z,1.13
2022-11-17T18:56:37.457Z,1.11
2022-11-17T18:59:11.683Z,1.06
2022-11-17T19:01:41.156Z,1.03
2022-11-17T19:04:09.481Z,1.01
2022-11-17T19:06:37.411Z,0.97
2022-11-17T19:09:06.856Z,0.92
2022-11-17T19:11:35.021Z,0.90
2022-11-17T19:14:04.324Z,0.78
2022-11-17T19:16:33.354Z,0.84
2022-11-17T19:19:01.455Z,0.88
2022-11-17T19:21:30.885Z,0.46
2022-11-17T19:24:00.412Z,0.89
2022-11-17T19:26:31.546Z,0.85
2022-11-17T19:29:01.031Z,0.82
2022-11-17T19:31:29.440Z,0.85
2022-11-17T19:33:59.838Z,0.99
2022-11-17T19:36:29.621Z,0.98
2022-11-17T19:38:59.281Z,1.06
2022-11-17T19:41:30.698Z,1.04
2022-11-17T19:43:59.888Z,0.78
2022-11-17T19:46:29.330Z,0.36
2022-11-17T19:48:58.064Z,0.97
2022-11-17T19:51:28.013Z,0.93
2022-11-17T19:53:57.231Z,1.09
2022-11-17T19:56:26.442Z,1.09
2022-11-17T19:58:55.857Z,1.07
2022-11-17T20:01:25.351Z,1.06
2022-11-17T20:03:53.899Z,0.97
2022-11-17T20:06:24.096Z,1.04
2022-11-17T20:08:51.917Z,1.03
2022-11-17T20:11:21.391Z,1.02
2022-11-17T20:13:50.128Z,1.01
2022-11-17T20:16:21.398Z,1.01
2022-11-17T20:18:52.015Z,1.00
2022-11-17T20:21:20.593Z,0.97
2022-11-17T20:23:48.483Z,0.61
2022-11-17T20:26:18.813Z,0.72
2022-11-17T20:28:47.864Z,0.98
2022-11-17T20:31:17.571Z,0.98
2022-11-17T20:33:47.721Z,0.92
2022-11-17T20:36:18.017Z,0.98
2022-11-17T20:38:46.691Z,0.93
2022-11-17T20:41:14.572Z,0.98
2022-11-17T20:43:42.393Z,1.00
2022-11-17T20:46:10.531Z,0.79
2022-11-17T20:48:38.388Z,1.03
2022-11-17T20:51:08.942Z,0.97
2022-11-17T20:53:36.764Z,0.96
2022-11-17T20:56:06.694Z,0.95
2022-11-17T20:58:35.777Z,0.91
2022-11-17T21:01:09.550Z,0.94
2022-11-17T21:03:37.546Z,0.94
2022-11-17T21:06:07.892Z,0.94
2022-11-17T21:08:37.397Z,0.96
2022-11-17T21:11:07.417Z,0.95
2022-11-17T21:13:36.920Z,0.97
2022-11-17T21:16:07.220Z,0.96
2022-11-17T21:18:36.071Z,0.96
2022-11-17T21:21:08.806Z,0.97
2022-11-17T21:23:39.659Z,0.95
2022-11-17T21:26:08.351Z,0.88
2022-11-17T21:28:37.057Z,0.95
2022-11-17T21:31:07.941Z,0.93
2022-11-17T21:33:36.166Z,0.96
2022-11-17T21:36:04.745Z,0.95
2022-11-17T21:38:33.145Z,0.96
2022-11-17T21:41:06.420Z,0.95
2022-11-17T21:43:37.542Z,0.96
2022-11-17T21:46:06.846Z,0.94
2022-11-17T21:48:35.948Z,0.93
2022-11-17T21:51:03.840Z,0.92
2022-11-17T21:53:31.865Z,0.92
2022-11-17T21:56:03.390Z,0.89
2022-11-17T21:58:33.469Z,0.89
2022-11-17T22:01:07.788Z,0.84
2022-11-17T22:03:35.858Z,0.82
2022-11-17T22:06:08.714Z,0.84
2022-11-17T22:08:38.669Z,0.86
2022-11-17T22:11:08.221Z,0.90
2022-11-17T22:13:37.939Z,0.91
2022-11-17T22:16:08.946Z,0.89
2022-11-17T22:18:37.029Z,0.36
2022-11-17T22:21:05.870Z,0.84
2022-11-17T22:23:34.408Z,0.85
2022-11-17T22:26:04.825Z,0.87
2022-11-17T22:28:33.207Z,0.86
2022-11-17T22:31:06.728Z,0.83
2022-11-17T22:33:34.943Z,0.82
2022-11-17T22:36:03.837Z,0.81
2022-11-17T22:38:31.960Z,0.83
2022-11-17T22:41:01.370Z,0.86
2022-11-17T22:43:29.446Z,0.85
2022-11-17T22:45:57.828Z,0.65
2022-11-17T22:48:27.254Z,0.89
2022-11-17T22:50:58.627Z,0.92
2022-11-17T22:53:26.863Z,0.97
2022-11-17T22:55:55.181Z,1.04
2022-11-17T22:58:23.017Z,1.09
2022-11-17T23:00:53.012Z,1.12
2022-11-17T23:03:21.022Z,1.15
2022-11-17T23:05:50.343Z,1.17
2022-11-17T23:08:18.340Z,1.19
2022-11-17T23:10:46.617Z,1.20
2022-11-17T23:13:14.489Z,1.23
2022-11-17T23:15:42.493Z,0.92
2022-11-17T23:18:10.550Z,1.26
2022-11-17T23:20:38.597Z,1.26
2022-11-17T23:23:07.957Z,1.12
2022-11-17T23:25:37.092Z,1.28
2022-11-17T23:28:05.145Z,1.09
2022-11-17T23:30:33.743Z,1.33
2022-11-17T23:33:01.795Z,1.35
2022-11-17T23:35:29.617Z,1.39
2022-11-17T23:37:58.888Z,1.37
2022-11-17T23:40:28.288Z,1.41
2022-11-17T23:42:56.158Z,1.37
2022-11-17T23:45:24.123Z,1.47
2022-11-17T23:47:52.010Z,1.48
2022-11-17T23:50:20.174Z,1.52
2022-11-17T23:52:48.042Z,1.48
2022-11-17T23:55:15.931Z,1.55
2022-11-17T23:57:45.124Z,1.57
